Time;durP1;ratioP1;P1;durP2;ratioP2;P2;SDS_P1;SDS_P2;PMS_P1;PMS_P2;Temp;Humidity;BMP_temperature;BMP_pressure;BME280_temperature;BME280_humidity;BME280_pressure;Samples;Min_cycle;Max_cycle;Signal;HPM_P1;HPM_P2
2023/06/06 00:02:21;;;;;;;13.10;5.13;;;;;;;41.01;37.69;101162.69;4898615;29;20500;-87
2023/06/06 00:04:49;;;;;;;15.60;7.37;;;;;;;41.09;37.40;101167.34;4897845;29;20188;-90
2023/06/06 00:07:19;;;;;;;21.30;5.70;;;;;;;41.17;37.86;101158.34;4898008;29;20422;-90
2023/06/06 00:09:45;;;;;;;13.43;6.00;;;;;;;41.11;37.32;101159.63;4914170;29;20422;-90
2023/06/06 00:12:14;;;;;;;17.97;6.10;;;;;;;41.14;37.17;101150.84;4898497;29;20425;-90
2023/06/06 00:14:41;;;;;;;12.43;5.40;;;;;;;41.20;37.00;101155.00;4898108;29;20710;-89
2023/06/06 00:17:09;;;;;;;16.67;6.63;;;;;;;41.22;36.96;101155.47;4899898;29;20491;-88
2023/06/06 00:19:40;;;;;;;18.07;6.43;;;;;;;41.06;37.62;101148.91;4898768;29;20474;-88
2023/06/06 00:22:07;;;;;;;14.80;5.33;;;;;;;40.99;38.32;101154.84;4898797;29;20422;-87
2023/06/06 00:24:33;;;;;;;18.13;6.20;;;;;;;40.90;38.63;101153.22;4898580;29;20428;-88
2023/06/06 00:26:59;;;;;;;16.73;7.60;;;;;;;40.97;38.44;101146.22;4899117;29;20429;-87
2023/06/06 00:29:24;;;;;;;15.97;6.03;;;;;;;40.98;37.62;101136.13;4898636;29;20923;-88
2023/06/06 00:31:50;;;;;;;12.40;4.27;;;;;;;41.00;37.53;101142.81;4898609;29;20820;-90
2023/06/06 00:34:16;;;;;;;14.80;7.33;;;;;;;41.03;37.63;101146.84;4898434;29;20189;-89
2023/06/06 00:36:42;;;;;;;15.37;5.10;;;;;;;40.96;37.60;101144.59;4898537;29;20722;-90
2023/06/06 00:39:08;;;;;;;27.33;7.70;;;;;;;40.99;37.72;101138.50;4898330;29;20968;-87
2023/06/06 00:41:34;;;;;;;15.83;5.83;;;;;;;41.10;38.02;101132.75;4898297;29;20195;-87
2023/06/06 00:44:00;;;;;;;15.77;5.33;;;;;;;40.89;37.69;101108.91;4898386;29;20599;-88
2023/06/06 00:46:26;;;;;;;13.03;4.97;;;;;;;40.89;37.36;101118.97;4899156;29;20974;-88
2023/06/06 00:48:52;;;;;;;19.27;4.57;;;;;;;40.81;37.54;101098.81;4898247;29;20266;-87
2023/06/06 00:51:18;;;;;;;16.00;5.70;;;;;;;41.01;37.59;101106.34;4898068;29;20856;-87
2023/06/06 00:53:45;;;;;;;15.30;5.97;;;;;;;40.79;37.55;101093.69;4898196;29;20441;-88
2023/06/06 00:56:13;;;;;;;16.50;5.30;;;;;;;40.97;37.27;101102.66;4898100;29;20450;-90
2023/06/06 00:58:41;;;;;;;10.13;5.37;;;;;;;40.82;37.76;101094.94;4897983;29;20422;-90
2023/06/06 01:01:09;;;;;;;19.57;6.97;;;;;;;41.07;37.71;101077.84;4898019;29;20942;-89
2023/06/06 01:03:35;;;;;;;12.87;5.90;;;;;;;41.07;38.00;101074.34;4897961;29;20916;-88
2023/06/06 01:06:02;;;;;;;14.87;6.03;;;;;;;40.76;38.19;101079.91;4897893;29;20537;-88
2023/06/06 01:08:28;;;;;;;14.30;5.63;;;;;;;40.66;38.39;101067.47;4897889;29;20460;-88
2023/06/06 01:11:06;;;;;;;15.57;6.23;;;;;;;40.84;38.45;101070.97;4897585;29;20430;-88
2023/06/06 01:13:55;;;;;;;19.03;7.17;;;;;;;40.79;38.18;101074.66;4897875;29;20966;-87
2023/06/06 01:16:21;;;;;;;14.93;5.80;;;;;;;40.68;38.45;101054.34;4897404;29;20474;-88
2023/06/06 01:18:48;;;;;;;14.43;6.43;;;;;;;40.65;38.69;101060.44;4897638;29;20426;-87
2023/06/06 01:21:15;;;;;;;16.83;6.70;;;;;;;40.85;38.67;101071.75;4897723;29;20492;-88
2023/06/06 01:23:43;;;;;;;11.83;6.03;;;;;;;40.79;38.50;101076.56;4897492;29;20421;-88
2023/06/06 01:26:10;;;;;;;16.17;6.60;;;;;;;40.94;38.61;101084.25;4897083;29;21005;-88
2023/06/06 01:28:36;;;;;;;10.50;4.97;;;;;;;40.71;38.56;101074.66;4897512;29;20440;-88
2023/06/06 01:31:03;;;;;;;19.20;5.47;;;;;;;40.76;38.65;101066.31;4897439;29;20430;-88
2023/06/06 01:33:44;;;;;;;10.13;4.97;;;;;;;40.50;39.31;101069.84;4897697;29;20555;-88
2023/06/06 01:36:37;;;;;;;13.87;6.93;;;;;;;40.69;38.83;101061.38;4897256;29;20481;-87
2023/06/06 01:39:11;;;;;;;17.70;5.90;;;;;;;40.63;38.32;101059.94;4897418;29;20453;-88
2023/06/06 01:41:38;;;;;;;16.30;5.27;;;;;;;40.74;38.43;101057.69;4897379;29;20432;-88
2023/06/06 01:44:08;;;;;;;21.50;7.33;;;;;;;40.80;38.34;101050.97;4897455;29;20433;-87
2023/06/06 01:46:35;;;;;;;16.90;5.60;;;;;;;40.52;38.54;101055.94;4897170;29;20875;-87
2023/06/06 01:49:02;;;;;;;18.77;5.23;;;;;;;40.73;38.02;101062.34;4897368;29;20513;-88
2023/06/06 01:51:28;;;;;;;17.07;6.53;;;;;;;40.61;38.65;101036.91;4896988;29;20957;-88
2023/06/06 01:53:58;;;;;;;15.27;4.93;;;;;;;40.68;38.12;101054.34;4897287;29;20460;-88
2023/06/06 01:56:25;;;;;;;12.00;5.30;;;;;;;40.76;38.10;101041.84;4897086;29;20421;-87
2023/06/06 01:58:52;;;;;;;17.57;6.53;;;;;;;40.92;37.78;101058.50;4897059;29;20801;-87
2023/06/06 02:01:18;;;;;;;23.33;5.70;;;;;;;40.81;38.07;101063.44;4897214;29;20426;-87
2023/06/06 02:03:44;;;;;;;12.60;5.23;;;;;;;40.73;38.14;101059.63;4896815;29;20429;-87
2023/06/06 02:06:10;;;;;;;11.50;4.30;;;;;;;40.67;37.82;101058.19;4896864;29;20477;-87
2023/06/06 02:08:36;;;;;;;13.40;5.57;;;;;;;40.66;38.08;101047.63;4896760;29;20810;-86
2023/06/06 02:11:02;;;;;;;12.73;5.10;;;;;;;40.64;38.56;101053.38;4897019;29;20192;-88
2023/06/06 02:13:28;;;;;;;11.37;5.53;;;;;;;40.94;38.30;101056.25;4897041;29;20437;-87
2023/06/06 02:15:55;;;;;;;17.90;6.40;;;;;;;40.91;37.92;101056.91;4896654;29;20474;-88
2023/06/06 02:18:21;;;;;;;16.43;5.30;;;;;;;40.87;38.28;101045.81;4896892;29;20432;-88
2023/06/06 02:20:47;;;;;;;12.83;4.60;;;;;;;40.93;37.55;101051.94;4896731;29;20894;-87
2023/06/06 02:23:13;;;;;;;9.43;5.50;;;;;;;40.75;38.09;101043.75;4896659;29;21025;-88
2023/06/06 02:25:39;;;;;;;18.93;4.73;;;;;;;40.95;37.00;101041.56;4896634;29;20467;-88
2023/06/06 02:28:07;;;;;;;14.00;7.87;;;;;;;40.93;37.56;101046.50;4896940;29;20421;-87
2023/06/06 02:30:32;;;;;;;15.83;5.10;;;;;;;40.95;37.17;101063.31;4896805;29;20430;-87
2023/06/06 02:32:59;;;;;;;13.50;4.97;;;;;;;40.96;37.20;101081.22;4896893;29;20774;-88
2023/06/06 02:35:25;;;;;;;11.33;5.80;;;;;;;41.00;37.10;101087.59;4896742;29;20208;-88
2023/06/06 02:37:50;;;;;;;17.93;5.90;;;;;;;41.08;36.88;101084.09;4899331;29;20450;-88
2023/06/06 02:40:17;;;;;;;14.37;4.70;;;;;;;41.02;36.82;101088.09;4900284;29;20463;-89
2023/06/06 02:42:42;;;;;;;16.53;6.57;;;;;;;41.09;36.87;101091.13;4900517;29;20181;-90
2023/06/06 02:45:10;;;;;;;13.77;5.00;;;;;;;41.19;36.86;101106.31;4900121;29;20473;-90
2023/06/06 02:47:36;;;;;;;18.73;7.33;;;;;;;41.23;37.12;101118.94;4900363;29;20433;-89
2023/06/06 02:50:04;;;;;;;15.33;5.13;;;;;;;41.24;36.89;101133.34;4900334;29;20446;-89
2023/06/06 02:52:31;;;;;;;9.77;5.00;;;;;;;40.90;37.67;101117.84;4900134;29;20422;-88
2023/06/06 02:54:58;;;;;;;9.73;4.67;;;;;;;41.08;37.19;101120.28;4900347;29;20425;-88
2023/06/06 02:57:24;;;;;;;12.63;4.27;;;;;;;41.04;37.51;101130.19;4900051;29;20425;-88
2023/06/06 02:59:51;;;;;;;15.90;4.50;;;;;;;41.06;36.88;101129.84;4900285;29;20425;-87
2023/06/06 03:02:17;;;;;;;15.63;5.13;;;;;;;41.05;36.97;101130.97;4900246;29;20436;-88
2023/06/06 03:04:43;;;;;;;13.63;5.97;;;;;;;41.13;36.70;101123.94;4899970;29;20473;-90
2023/06/06 03:07:10;;;;;;;14.27;7.13;;;;;;;41.07;36.66;101120.59;4900339;29;20801;-91
2023/06/06 03:09:37;;;;;;;12.53;4.97;;;;;;;41.07;36.44;101128.75;4900097;29;20485;-88
2023/06/06 03:12:03;;;;;;;13.13;5.70;;;;;;;41.19;36.44;101114.47;4899896;29;20481;-88
2023/06/06 03:14:29;;;;;;;12.80;6.27;;;;;;;41.17;36.41;101114.00;4899840;29;20497;-89
2023/06/06 03:16:56;;;;;;;14.87;7.03;;;;;;;41.08;36.73;101114.03;4899980;29;20464;-87
2023/06/06 03:19:22;;;;;;;11.90;5.17;;;;;;;41.07;36.62;101129.56;4899899;29;21021;-88
2023/06/06 03:21:48;;;;;;;15.73;4.53;;;;;;;41.07;36.42;101124.13;4899894;29;20426;-90
2023/06/06 03:24:15;;;;;;;13.17;5.80;;;;;;;40.94;36.56;101121.53;4899987;29;20446;-89
2023/06/06 03:26:47;;;;;;;13.20;4.20;;;;;;;41.05;36.57;101118.19;4899671;29;20548;-90
2023/06/06 03:29:14;;;;;;;13.40;4.90;;;;;;;41.07;36.43;101120.59;4899700;29;20425;-88
2023/06/06 03:31:41;;;;;;;14.60;4.60;;;;;;;40.90;37.39;101120.56;4901152;29;20489;-87
2023/06/06 03:34:07;;;;;;;12.07;6.90;;;;;;;40.89;37.62;101118.97;4900925;29;20768;-88
2023/06/06 03:36:34;;;;;;;18.30;5.83;;;;;;;40.88;37.86;101109.19;4899632;29;20816;-88
2023/06/06 03:39:03;;;;;;;15.10;4.80;;;;;;;40.75;37.93;101111.75;4899527;29;20457;-87
2023/06/06 03:41:30;;;;;;;14.23;4.83;;;;;;;40.64;37.84;101099.63;4900906;29;20497;-88
2023/06/06 03:43:57;;;;;;;25.63;5.70;;;;;;;40.83;37.51;101106.66;4899536;29;20426;-87
2023/06/06 03:46:23;;;;;;;16.23;6.50;;;;;;;40.80;37.73;101100.72;4899246;29;20994;-88
2023/06/06 03:48:49;;;;;;;11.83;6.27;;;;;;;40.76;37.80;101097.06;4900397;29;20493;-88
2023/06/06 03:51:15;;;;;;;12.40;5.20;;;;;;;40.70;38.11;101092.06;4899363;29;20548;-88
2023/06/06 03:53:42;;;;;;;12.43;4.20;;;;;;;40.76;37.56;101090.78;4899098;29;20425;-87
2023/06/06 03:56:08;;;;;;;17.03;7.53;;;;;;;40.81;37.39;101096.88;4899208;29;20418;-87
2023/06/06 03:58:36;;;;;;;13.37;5.60;;;;;;;40.79;36.98;101093.69;4899087;29;20445;-87
2023/06/06 04:01:02;;;;;;;11.70;5.20;;;;;;;40.77;37.21;101106.81;4899138;29;20445;-87
2023/06/06 04:03:36;;;;;;;14.67;5.37;;;;;;;40.73;37.35;101108.56;4899194;29;20445;-87
2023/06/06 04:06:04;;;;;;;15.30;5.30;;;;;;;40.92;37.25;101105.56;4898980;29;20469;-88
2023/06/06 04:08:32;;;;;;;13.53;5.13;;;;;;;40.90;37.46;101107.81;4899008;29;20456;-87
2023/06/06 04:10:58;;;;;;;16.03;5.37;;;;;;;40.95;37.63;101106.84;4900347;29;20402;-88
2023/06/06 04:13:24;;;;;;;14.83;5.23;;;;;;;41.04;37.19;101119.31;4898933;29;20484;-88
2023/06/06 04:15:50;;;;;;;11.37;4.33;;;;;;;40.90;37.56;101115.13;4898482;29;20543;-87
2023/06/06 04:18:16;;;;;;;17.67;6.50;;;;;;;40.92;37.64;101121.88;4898809;29;20209;-88
2023/06/06 04:20:44;;;;;;;19.60;5.10;;;;;;;40.68;37.68;101129.69;4898715;29;20192;-87
2023/06/06 04:23:10;;;;;;;14.13;5.70;;;;;;;40.60;38.32;101134.00;4898641;29;20421;-87
2023/06/06 04:25:36;;;;;;;14.33;4.83;;;;;;;40.68;38.09;101144.06;4898572;29;20880;-88
2023/06/06 04:28:02;;;;;;;18.27;4.83;;;;;;;40.63;38.01;101135.28;4898437;29;20961;-86
2023/06/06 04:30:29;;;;;;;15.03;6.50;;;;;;;40.40;38.45;101145.47;4898892;29;20593;-88
2023/06/06 04:32:56;;;;;;;12.03;4.20;;;;;;;40.60;38.87;101144.09;4898460;29;20437;-88
2023/06/06 04:35:22;;;;;;;14.07;5.23;;;;;;;40.58;38.81;101136.25;4898334;29;21031;-88
2023/06/06 04:37:53;;;;;;;8.90;3.87;;;;;;;40.69;38.54;101134.00;4898376;29;20915;-87
2023/06/06 04:40:21;;;;;;;17.80;6.67;;;;;;;40.80;38.54;101135.28;4898228;29;20469;-88
2023/06/06 04:42:49;;;;;;;19.23;6.60;;;;;;;40.43;38.77;101123.06;4898437;29;20974;-88
2023/06/06 04:45:15;;;;;;;12.23;5.27;;;;;;;40.44;38.67;101125.47;4898210;29;20478;-89
2023/06/06 04:47:45;;;;;;;10.93;4.93;;;;;;;40.40;38.66;101126.44;4898202;29;20491;-88
2023/06/06 04:50:11;;;;;;;15.97;5.73;;;;;;;40.13;39.34;101095.66;4898192;29;20445;-88
2023/06/06 04:52:37;;;;;;;11.00;5.20;;;;;;;40.37;38.55;101106.09;4898081;29;20430;-88
2023/06/06 04:55:04;;;;;;;10.63;5.50;;;;;;;40.35;38.59;101116.50;4898123;29;20560;-88
2023/06/06 04:57:30;;;;;;;10.60;4.37;;;;;;;40.28;39.05;101105.31;4897984;29;20919;-90
2023/06/06 04:59:56;;;;;;;10.83;4.87;;;;;;;40.52;38.33;101119.28;4897309;29;20421;-89
2023/06/06 05:02:28;;;;;;;10.03;4.97;;;;;;;40.55;38.12;101126.78;4898214;29;20426;-89
2023/06/06 05:04:56;;;;;;;10.67;4.47;;;;;;;40.57;37.88;101121.03;4897855;29;20422;-89
2023/06/06 05:07:24;;;;;;;10.50;4.20;;;;;;;40.53;37.71;101137.19;4897886;29;20421;-90
2023/06/06 05:09:53;;;;;;;10.17;4.50;;;;;;;40.62;37.44;101136.41;4897861;29;20927;-88
2023/06/06 05:12:23;;;;;;;11.17;6.20;;;;;;;40.74;37.07;101134.66;4897736;29;20432;-88
2023/06/06 05:14:50;;;;;;;9.93;3.50;;;;;;;40.77;36.65;101125.06;4897646;29;20469;-88
2023/06/06 05:17:23;;;;;;;13.40;4.50;;;;;;;40.76;36.37;101135.16;4897782;29;20442;-88
2023/06/06 05:19:49;;;;;;;12.60;4.97;;;;;;;40.67;35.89;101128.09;4897789;29;20422;-88
2023/06/06 05:22:16;;;;;;;9.10;4.03;;;;;;;40.85;35.84;101156.09;4899071;29;20402;-88
2023/06/06 05:24:43;;;;;;;13.93;4.30;;;;;;;40.75;35.38;101143.59;4897551;29;20429;-87
2023/06/06 05:27:09;;;;;;;16.83;5.40;;;;;;;40.79;35.34;101145.38;4898837;29;20496;-90
2023/06/06 05:29:35;;;;;;;19.17;7.67;;;;;;;40.70;35.66;101146.47;4897567;29;20474;-90
2023/06/06 05:32:02;;;;;;;22.53;7.80;;;;;;;40.56;36.11;101149.34;4899047;29;20426;-90
2023/06/06 05:34:27;;;;;;;23.30;8.93;;;;;;;40.66;37.08;101143.59;4897363;29;20505;-89
2023/06/06 05:36:53;;;;;;;21.10;6.47;;;;;;;40.69;37.12;101142.16;4897716;29;20516;-89
2023/06/06 05:39:20;;;;;;;19.60;8.10;;;;;;;40.35;38.18;101129.28;4896930;29;20218;-88
2023/06/06 05:41:54;;;;;;;33.57;12.23;;;;;;;40.33;38.63;101120.63;4897341;29;20741;-87
2023/06/06 05:44:22;;;;;;;19.33;8.40;;;;;;;40.56;38.27;101143.91;4897207;29;20429;-86
2023/06/06 05:46:53;;;;;;;27.67;12.37;;;;;;;40.43;38.44;101152.97;4897154;29;20493;-89
2023/06/06 05:49:19;;;;;;;28.23;11.87;;;;;;;40.10;37.89;101160.72;4898622;29;20778;-87
2023/06/06 05:51:45;;;;;;;21.00;10.13;;;;;;;39.93;37.99;101164.94;4899098;29;20426;-89
2023/06/06 05:54:14;;;;;;;27.30;8.03;;;;;;;39.90;38.45;101176.44;4897057;29;20953;-88
2023/06/06 05:56:41;;;;;;;22.77;10.03;;;;;;;39.77;38.27;101177.31;4897521;29;20414;-84
2023/06/06 05:59:07;;;;;;;23.07;9.43;;;;;;;39.90;38.13;101170.19;4898980;29;20464;-87
2023/06/06 06:01:33;;;;;;;33.37;8.10;;;;;;;39.81;37.84;101172.88;4896161;29;20876;-85
2023/06/06 06:03:59;;;;;;;26.53;7.43;;;;;;;40.00;37.60;101186.22;4895974;29;21005;-86
2023/06/06 06:06:26;;;;;;;17.50;6.80;;;;;;;39.84;37.75;101185.84;4895656;29;20241;-87
2023/06/06 06:08:55;;;;;;;25.10;6.13;;;;;;;39.96;37.70;101180.63;4896487;29;20181;-83
2023/06/06 06:11:21;;;;;;;22.10;8.23;;;;;;;39.97;37.64;101178.69;4896786;29;20421;-86
2023/06/06 06:13:46;;;;;;;22.17;6.90;;;;;;;39.92;37.89;101174.19;4897104;29;20965;-86
2023/06/06 06:16:12;;;;;;;26.57;7.87;;;;;;;39.56;38.33;101181.63;4895982;29;20312;-84
2023/06/06 06:18:38;;;;;;;18.63;6.37;;;;;;;39.76;37.88;101181.94;4895762;29;20440;-83
2023/06/06 06:21:05;;;;;;;19.70;7.77;;;;;;;39.59;38.10;101170.13;4896493;29;20186;-85
2023/06/06 06:23:31;;;;;;;15.70;6.93;;;;;;;39.60;37.86;101160.91;4896685;29;20478;-85
2023/06/06 06:25:57;;;;;;;13.80;5.47;;;;;;;39.73;37.49;101166.28;4896113;29;21013;-87
2023/06/06 06:28:25;;;;;;;12.57;6.50;;;;;;;39.76;37.51;101183.84;4896551;29;20430;-86
2023/06/06 06:30:51;;;;;;;17.93;5.80;;;;;;;39.85;37.35;101184.72;4913394;29;20189;-76
2023/06/06 06:33:17;;;;;;;14.27;4.63;;;;;;;39.89;37.50;101182.16;4896109;29;20501;-86
2023/06/06 06:35:44;;;;;;;14.17;6.43;;;;;;;40.07;37.37;101169.50;4896596;29;20418;-89
2023/06/06 06:38:10;;;;;;;20.00;7.97;;;;;;;40.12;37.06;101170.16;4896820;29;20969;-89
2023/06/06 06:40:36;;;;;;;18.00;7.03;;;;;;;40.20;37.23;101174.00;4895432;29;20529;-89
2023/06/06 06:43:02;;;;;;;16.33;6.73;;;;;;;40.25;37.15;101168.44;4896002;29;20426;-87
2023/06/06 06:45:28;;;;;;;22.80;6.83;;;;;;;40.39;36.57;101173.75;4895070;29;20458;-90
2023/06/06 06:47:54;;;;;;;16.30;7.30;;;;;;;40.33;36.95;101173.13;4894352;29;20432;-88
2023/06/06 06:50:20;;;;;;;25.77;10.13;;;;;;;40.45;36.44;101167.03;4894155;29;20418;-88
2023/06/06 06:52:46;;;;;;;12.97;6.00;;;;;;;40.52;36.09;101167.44;4894170;29;20513;-88
2023/06/06 06:55:12;;;;;;;16.03;6.30;;;;;;;40.61;36.66;101170.16;4894399;29;20202;-88
2023/06/06 06:57:40;;;;;;;14.90;6.57;;;;;;;40.56;36.18;101162.94;4894468;29;20436;-88
2023/06/06 07:00:12;;;;;;;20.83;7.77;;;;;;;40.61;36.00;101181.81;4895060;29;20437;-88
2023/06/06 07:02:49;;;;;;;23.00;7.27;;;;;;;40.62;35.85;101164.38;4910096;29;20441;-88
2023/06/06 07:05:16;;;;;;;16.57;7.07;;;;;;;40.54;35.75;101168.69;4896636;29;20520;-91
2023/06/06 07:07:50;;;;;;;16.87;8.37;;;;;;;40.55;35.83;101183.88;4899165;29;20959;-91
2023/06/06 07:10:17;;;;;;;13.97;9.70;;;;;;;40.61;36.20;101189.97;4896909;29;20436;-89
2023/06/06 07:12:51;;;;;;;24.10;7.73;;;;;;;40.62;36.63;101193.50;4897230;29;20452;-88
2023/06/06 07:15:18;;;;;;;21.70;10.53;;;;;;;40.78;36.65;101203.63;4892775;29;20500;-92
2023/06/06 07:17:49;;;;;;;15.00;8.60;;;;;;;40.72;36.85;101206.81;4896125;29;20970;-89
2023/06/06 07:20:15;;;;;;;13.83;5.50;;;;;;;40.68;36.15;101206.63;4898462;29;20422;-89
2023/06/06 07:22:41;;;;;;;23.00;7.30;;;;;;;40.73;36.79;101211.13;4901083;29;20425;-91
2023/06/06 07:25:08;;;;;;;24.60;6.60;;;;;;;40.71;37.03;101211.44;4907277;29;20414;-90
2023/06/06 07:27:36;;;;;;;15.10;7.00;;;;;;;40.73;37.20;101217.38;4904198;29;20426;-90
2023/06/06 07:30:12;;;;;;;18.97;5.63;;;;;;;40.71;37.78;101221.53;4900471;29;20437;-86
2023/06/06 07:32:43;;;;;;;13.73;7.33;;;;;;;40.74;38.15;101229.03;4896853;29;20430;-87
2023/06/06 07:35:10;;;;;;;14.37;4.87;;;;;;;40.78;38.30;101219.13;4899302;29;20955;-88
2023/06/06 07:37:37;;;;;;;11.47;6.23;;;;;;;40.82;37.79;101236.41;4898767;29;20426;-85
2023/06/06 07:40:05;;;;;;;25.10;7.17;;;;;;;40.59;38.48;101221.34;4898907;29;20909;-85
2023/06/06 07:42:32;;;;;;;13.43;5.60;;;;;;;40.89;38.00;101241.41;4898187;29;20577;-86
2023/06/06 07:44:58;;;;;;;17.70;7.57;;;;;;;40.89;38.01;101228.59;4898639;29;20426;-86
2023/06/06 07:47:24;;;;;;;10.83;4.87;;;;;;;40.70;38.04;101244.38;4898114;29;20418;-86
2023/06/06 07:49:50;;;;;;;12.43;6.30;;;;;;;40.81;37.53;101227.44;4898300;29;20574;-86
2023/06/06 07:52:17;;;;;;;14.13;6.30;;;;;;;41.03;37.01;101248.31;4898715;29;20947;-86
2023/06/06 07:54:43;;;;;;;14.57;6.30;;;;;;;41.02;37.10;101245.94;4898153;29;20429;-88
2023/06/06 07:57:10;;;;;;;19.17;6.17;;;;;;;41.08;36.87;101250.09;4898311;29;20421;-87
2023/06/06 07:59:36;;;;;;;21.30;7.20;;;;;;;41.04;36.95;101240.97;4897198;29;20946;-87
2023/06/06 08:02:02;;;;;;;13.17;4.70;;;;;;;40.89;37.26;101244.94;4893546;29;20436;-87
2023/06/06 08:04:28;;;;;;;10.93;4.80;;;;;;;41.05;36.63;101242.56;4896681;29;20442;-88
2023/06/06 08:06:55;;;;;;;24.07;6.40;;;;;;;41.04;37.06;101247.19;4895888;29;20536;-88
2023/06/06 08:09:21;;;;;;;12.50;5.57;;;;;;;40.87;37.83;101243.63;4896244;29;20266;-87
2023/06/06 08:11:47;;;;;;;15.50;5.23;;;;;;;41.05;37.84;101250.72;4896218;29;20974;-89
2023/06/06 08:14:13;;;;;;;15.80;5.07;;;;;;;41.08;38.00;101242.72;4896435;29;20434;-89
2023/06/06 08:16:38;;;;;;;10.93;5.10;;;;;;;41.19;37.58;101256.84;4898716;29;20448;-89
2023/06/06 08:19:04;;;;;;;13.63;7.27;;;;;;;41.21;38.13;101257.31;4897888;29;20461;-88
2023/06/06 08:21:30;;;;;;;18.57;6.47;;;;;;;41.24;38.05;101269.47;4898108;29;20276;-89
2023/06/06 08:23:57;;;;;;;11.40;4.87;;;;;;;41.13;38.21;101274.44;4897454;29;20211;-89
2023/06/06 08:26:25;;;;;;;10.23;4.43;;;;;;;41.21;37.64;101267.41;4897911;29;20208;-90
2023/06/06 08:28:51;;;;;;;21.90;5.67;;;;;;;41.17;37.78;101266.41;4897565;29;20446;-90
2023/06/06 08:31:19;;;;;;;12.63;5.97;;;;;;;41.04;37.74;101266.25;4897887;29;20419;-90
2023/06/06 08:33:45;;;;;;;14.70;6.90;;;;;;;41.13;37.61;101271.72;4898249;29;20943;-91
2023/06/06 08:36:12;;;;;;;15.13;6.07;;;;;;;41.27;37.55;101283.25;4899515;29;20814;-88
2023/06/06 08:38:38;;;;;;;15.27;5.70;;;;;;;41.24;37.58;101278.44;4896933;29;20445;-87
2023/06/06 08:41:05;;;;;;;14.87;5.80;;;;;;;41.22;37.28;101272.50;4897366;29;20517;-90
2023/06/06 08:43:36;;;;;;;17.67;4.47;;;;;;;41.29;36.70;101272.84;4897342;29;20441;-84
2023/06/06 08:46:03;;;;;;;15.80;6.30;;;;;;;41.36;36.54;101268.84;4897125;29;20918;-84
2023/06/06 08:48:29;;;;;;;15.00;5.70;;;;;;;41.19;36.57;101273.16;4897159;29;20418;-84
2023/06/06 08:51:00;;;;;;;13.93;5.70;;;;;;;41.33;36.34;101262.16;4912705;29;20442;-81
2023/06/06 08:53:26;;;;;;;12.30;4.63;;;;;;;41.30;36.71;101266.25;4894554;29;20422;-79
2023/06/06 08:55:56;;;;;;;13.97;5.53;;;;;;;41.26;35.85;101265.31;4897871;29;20438;-82
2023/06/06 08:58:23;;;;;;;10.77;6.90;;;;;;;41.42;35.75;101267.56;4938451;23;20484;-82
2023/06/06 09:00:50;;;;;;;16.97;5.37;;;;;;;41.32;36.31;101271.41;4916054;29;20452;-83
2023/06/06 09:03:17;;;;;;;14.23;5.67;;;;;;;41.34;35.94;101269.97;4915265;29;20933;-85
2023/06/06 09:05:44;;;;;;;12.77;5.30;;;;;;;41.32;36.28;101274.97;4915710;29;20504;-86
2023/06/06 09:08:09;;;;;;;14.90;5.60;;;;;;;41.37;36.80;101267.72;4916126;29;20448;-83
2023/06/06 09:10:35;;;;;;;12.50;5.47;;;;;;;41.53;36.96;101272.38;4916341;29;20844;-83
2023/06/06 09:13:01;;;;;;;19.07;7.87;;;;;;;41.46;36.81;101269.34;4916004;29;20257;-85
2023/06/06 09:15:28;;;;;;;13.10;6.63;;;;;;;41.59;36.65;101283.91;4914707;29;20497;-85
2023/06/06 09:17:55;;;;;;;14.87;4.80;;;;;;;41.35;37.08;101265.34;4913948;29;20451;-85
2023/06/06 09:20:23;;;;;;;15.70;5.40;;;;;;;41.52;37.02;101272.72;4914062;29;20421;-85
2023/06/06 09:22:50;;;;;;;17.33;5.17;;;;;;;41.64;36.76;101275.56;4914235;29;20953;-85
2023/06/06 09:25:24;;;;;;;11.20;5.00;;;;;;;41.66;36.63;101284.22;4914017;29;20505;-84
2023/06/06 09:27:59;;;;;;;12.80;5.53;;;;;;;41.66;36.40;101280.69;4913843;29;20810;-84
2023/06/06 09:30:30;;;;;;;14.87;5.87;;;;;;;41.75;36.51;101289.69;4914643;29;20426;-86
2023/06/06 09:33:04;;;;;;;12.97;5.23;;;;;;;41.77;36.76;101295.63;4915739;29;20429;-85
2023/06/06 09:35:31;;;;;;;13.37;5.30;;;;;;;41.71;36.62;101297.69;4915586;29;20449;-85
2023/06/06 09:38:08;;;;;;;11.23;5.27;;;;;;;41.74;36.81;101309.84;4916637;29;20917;-92
2023/06/06 09:40:46;;;;;;;9.40;6.43;;;;;;;41.83;36.62;101303.28;4919332;29;20440;-93
2023/06/06 09:43:13;;;;;;;15.13;6.20;;;;;;;41.82;36.57;101293.53;4916265;29;20481;-91
2023/06/06 09:45:54;;;;;;;13.43;6.87;;;;;;;41.75;36.70;101295.94;4917019;29;21015;-89
2023/06/06 09:48:27;;;;;;;11.93;4.80;;;;;;;41.78;36.60;101305.38;4916478;29;20428;-88
2023/06/06 09:50:54;;;;;;;10.60;4.83;;;;;;;41.77;36.62;101306.50;4915956;29;20512;-89
2023/06/06 09:53:24;;;;;;;18.20;6.60;;;;;;;41.68;36.63;101306.50;4916257;29;20436;-89
2023/06/06 09:55:52;;;;;;;15.80;4.33;;;;;;;41.84;36.31;101310.34;4915880;29;20842;-89
2023/06/06 09:58:20;;;;;;;10.03;3.93;;;;;;;41.74;36.43;101310.69;4915402;29;20476;-88
2023/06/06 10:00:48;;;;;;;12.73;4.80;;;;;;;41.84;36.32;101315.00;4916031;29;20421;-88
2023/06/06 10:03:22;;;;;;;11.27;5.70;;;;;;;41.80;36.36;101327.66;4915964;29;20820;-90
2023/06/06 10:05:51;;;;;;;14.13;4.33;;;;;;;41.82;36.55;101326.22;4915884;29;20468;-88
2023/06/06 10:08:21;;;;;;;11.23;7.30;;;;;;;41.81;36.84;101324.63;4915921;29;20504;-90
2023/06/06 10:10:51;;;;;;;13.53;5.20;;;;;;;42.02;36.56;101324.75;4917262;29;20954;-87
2023/06/06 10:13:22;;;;;;;19.20;6.80;;;;;;;42.11;36.46;101313.81;4916013;29;20559;-88
2023/06/06 10:15:51;;;;;;;10.50;5.80;;;;;;;42.10;36.12;101314.94;4915906;29;20453;-94
2023/06/06 10:18:18;;;;;;;14.57;6.13;;;;;;;42.06;37.05;101300.38;4915865;29;20550;-91
2023/06/06 10:20:47;;;;;;;18.57;5.80;;;;;;;42.13;36.21;101304.19;4915694;29;20484;-89
2023/06/06 10:23:13;;;;;;;9.00;5.03;;;;;;;42.12;35.72;101309.97;4915683;29;20448;-90
2023/06/06 10:25:42;;;;;;;11.50;6.53;;;;;;;42.20;35.63;101306.44;4915643;29;20498;-88
2023/06/06 10:28:28;;;;;;;13.73;5.67;;;;;;;42.34;35.34;101319.88;4915932;29;20484;-89
2023/06/06 10:31:14;;;;;;;19.53;4.83;;;;;;;42.44;35.09;101318.72;4915514;29;20421;-89
2023/06/06 10:33:53;;;;;;;11.33;6.10;;;;;;;42.40;35.15;101330.25;4915789;29;20420;-91
2023/06/06 10:36:20;;;;;;;13.77;5.43;;;;;;;42.26;35.36;101312.53;4916225;29;20421;-90
2023/06/06 10:39:21;;;;;;;8.30;4.60;;;;;;;42.38;35.18;101331.72;4915769;29;20441;-88
2023/06/06 10:41:59;;;;;;;12.50;4.90;;;;;;;42.39;35.21;101327.88;4916847;29;20393;-88
2023/06/06 10:44:46;;;;;;;12.00;5.30;;;;;;;42.52;34.84;101317.88;4915943;29;20496;-88
2023/06/06 10:47:45;;;;;;;12.37;4.70;;;;;;;42.51;34.72;101314.34;4915566;29;20468;-88
2023/06/06 10:50:11;;;;;;;10.90;5.50;;;;;;;42.56;34.85;101307.91;4895425;29;20448;-89
2023/06/06 10:52:58;;;;;;;12.67;4.70;;;;;;;42.55;34.79;101306.31;4914977;29;20814;-88
2023/06/06 10:55:30;;;;;;;12.40;7.27;;;;;;;42.48;35.03;101301.38;4915639;29;20428;-89
2023/06/06 10:59:07;;;;;;;11.30;4.40;;;;;;;42.60;34.79;101298.78;4916544;29;20449;-84
2023/06/06 11:01:35;;;;;;;8.43;4.10;;;;;;;42.63;34.72;101267.31;4921894;29;21031;-84
2023/06/06 11:04:01;;;;;;;12.40;5.10;;;;;;;42.64;34.70;101255.25;4922250;29;20464;-89
2023/06/06 11:06:27;;;;;;;10.60;4.03;;;;;;;42.61;34.80;101256.72;4921781;29;20471;-86
2023/06/06 11:08:58;;;;;;;18.03;5.03;;;;;;;42.64;35.10;101264.25;4921449;29;20779;-90
2023/06/06 11:11:28;;;;;;;8.03;3.57;;;;;;;42.65;35.20;101259.59;4921808;29;20507;-90
2023/06/06 11:13:59;;;;;;;18.50;5.50;;;;;;;42.70;35.30;101256.66;4939215;29;20412;-90
2023/06/06 11:16:29;;;;;;;11.47;3.87;;;;;;;42.78;35.58;101258.53;4922153;29;20466;-90
2023/06/06 11:19:14;;;;;;;11.40;5.70;;;;;;;42.78;35.16;101253.06;4922449;29;20435;-89
2023/06/06 11:21:42;;;;;;;9.20;3.73;;;;;;;42.85;35.76;101253.38;4922285;29;20427;-86
2023/06/06 11:24:11;;;;;;;12.40;4.13;;;;;;;42.79;35.39;101241.06;4919982;29;21069;-90